^^
Saratoga-Weather Station Historical Data
Daily Summary for March 13, 2020 Units:  English    Metric   Both
Daily Weekly Monthly Yearly Custom
  High: Low: Average:
Temperature: 46 °F 42.1 °F 43.5 °F
Dew Point: 43.9 °F 40.8 °F 42.1 °F
Humidity: 97% 90% 95%
Wind Speed: 8.9mph 0mph 0.1mph
Wind Gust: 9mph - -
Wind- - SE
Pressure: 30.3 in 29.9 in -
Precipitation: 0.01 in    
Historical Graphs
 
 
Tabular Data for March 13, 2020
Time Temperature Dew Point Pressure Wind Wind Speed Wind Gust Humidity Rainfall Rate (Hourly) solar
00:00 42.8 °F 41.5 °F 30.3 in Calm     95% 0 in 0 W/m2
00:05 42.8 °F 41.5 °F 30.3 in Calm     95% 0 in 0 W/m2
00:10 42.8 °F 41.5 °F 30.3 in Calm     95% 0 in 0 W/m2
00:15 43 °F 41.7 °F 30.3 in Calm   1 mph 95% 0 in 0 W/m2
00:20 43 °F 41.7 °F 30.3 in Calm     95% 0 in 0 W/m2
00:25 43 °F 41.7 °F 30.3 in Calm     95% 0 in 0 W/m2
00:30 43 °F 41.7 °F 30.3 in Calm   1 mph 95% 0 in 0 W/m2
00:35 43 °F 41.7 °F 30.3 in Calm     95% 0 in 0 W/m2
00:40 43 °F 41.7 °F 30.3 in Calm     95% 0 in 0 W/m2
00:45 43 °F 41.7 °F 30.3 in Calm     95% 0 in 0 W/m2
00:50 42.8 °F 41.7 °F 30.3 in Calm     96% 0 in 0 W/m2
00:55 43 °F 41.9 °F 30.3 in Calm     96% 0 in 0 W/m2
01:01 42.8 °F 41.7 °F 30.3 in Calm     96% 0 in 0 W/m2
01:06 42.8 °F 41.7 °F 30.3 in Calm     96% 0 in 0 W/m2
01:11 42.8 °F 41.7 °F 30.3 in Calm     96% 0 in 0 W/m2
01:16 42.8 °F 41.7 °F 30.3 in Calm   2 mph 96% 0 in 0 W/m2
01:21 42.8 °F 41.7 °F 30.3 in Calm     96% 0 in 0 W/m2
01:26 42.8 °F 41.7 °F 30.3 in Calm   2 mph 96% 0 in 0 W/m2
01:31 42.6 °F 41.5 °F 30.3 in Calm     96% 0 in 0 W/m2
01:36 42.6 °F 41.5 °F 30.3 in Calm   1 mph 96% 0 in 0 W/m2
01:41 42.6 °F 41.5 °F 30.3 in Calm     96% 0 in 0 W/m2
01:46 42.6 °F 41.5 °F 30.3 in Calm   1 mph 96% 0 in 0 W/m2
01:51 42.6 °F 41.5 °F 30.3 in Calm     96% 0 in 0 W/m2
01:56 42.6 °F 41.5 °F 30.3 in Calm     96% 0 in 0 W/m2
02:01 42.6 °F 41.5 °F 30.3 in Calm     96% 0 in 0 W/m2
02:06 42.6 °F 41.5 °F 30.3 in Calm     96% 0 in 0 W/m2
02:11 42.6 °F 41.5 °F 30.3 in Calm     96% 0 in 0 W/m2
02:16 42.6 °F 41.5 °F 30.3 in Calm     96% 0 in 0 W/m2
02:21 42.6 °F 41.5 °F 30.3 in Calm     96% 0 in 0 W/m2
02:26 42.6 °F 41.5 °F 30.3 in Calm     96% 0 in 0 W/m2
02:31 42.6 °F 41.5 °F 30.3 in Calm     96% 0 in 0 W/m2
02:36 42.6 °F 41.5 °F 30.3 in Calm     96% 0 in 0 W/m2
02:41 42.6 °F 41.5 °F 30.3 in Calm     96% 0 in 0 W/m2
02:47 42.6 °F 41.5 °F 30.3 in Calm   1 mph 96% 0 in 0 W/m2
02:52 42.6 °F 41.5 °F 30.3 in Calm     96% 0 in 0 W/m2
02:57 42.6 °F 41.5 °F 30.3 in Calm     96% 0 in 0 W/m2
03:02 42.6 °F 41.5 °F 30.3 in Calm     96% 0 in 0 W/m2
03:07 42.6 °F 41.5 °F 30.3 in Calm     96% 0 in 0 W/m2
03:12 42.6 °F 41.5 °F 30.3 in Calm     96% 0 in 0 W/m2
03:17 42.6 °F 41.5 °F 30.3 in Calm     96% 0 in 0 W/m2
03:22 42.6 °F 41.5 °F 30.3 in Calm     96% 0 in 0 W/m2
03:27 42.6 °F 41.5 °F 30.3 in Calm     96% 0 in 0 W/m2
03:32 42.6 °F 41.5 °F 30.3 in Calm   2 mph 96% 0 in 0 W/m2
03:37 42.6 °F 41.5 °F 30.3 in Calm     96% 0 in 0 W/m2
03:42 42.4 °F 41.4 °F 30.3 in Calm     96% 0 in 0 W/m2
03:47 42.4 °F 41.4 °F 30.3 in Calm     96% 0 in 0 W/m2
03:52 42.4 °F 41.4 °F 30.3 in Calm     96% 0 in 0 W/m2
03:57 42.4 °F 41.4 °F 30.2 in Calm     96% 0 in 0 W/m2
04:02 42.4 °F 41.4 °F 30.2 in Calm   2 mph 96% 0 in 0 W/m2
04:07 42.4 °F 41.4 °F 30.2 in Calm     96% 0 in 0 W/m2
04:12 42.4 °F 41.4 °F 30.2 in Calm     96% 0 in 0 W/m2
04:17 42.4 °F 41.4 °F 30.2 in Calm     96% 0 in 0 W/m2
04:22 42.4 °F 41.4 °F 30.2 in Calm     96% 0 in 0 W/m2
04:27 42.4 °F 41.7 °F 30.2 in Calm     97% 0 in 0 W/m2
04:32 42.4 °F 41.7 °F 30.2 in Calm     97% 0 in 0 W/m2
04:37 42.4 °F 41.4 °F 30.2 in Calm   1 mph 96% 0 in 0 W/m2
04:42 42.4 °F 41.7 °F 30.2 in Calm     97% 0 in 0 W/m2
04:47 42.4 °F 41.7 °F 30.2 in Calm     97% 0 in 0 W/m2
04:52 42.4 °F 41.7 °F 30.2 in Calm   1 mph 97% 0 in 0 W/m2
04:57 42.4 °F 41.7 °F 30.2 in Calm     97% 0 in 0 W/m2
05:02 42.4 °F 41.7 °F 30.2 in Calm   1 mph 97% 0 in 0 W/m2
05:07 42.4 °F 41.7 °F 30.2 in Calm     97% 0 in 0 W/m2
05:12 42.4 °F 41.4 °F 30.2 in Calm   1 mph 96% 0 in 0 W/m2
05:17 42.3 °F 41.5 °F 30.2 in Calm     97% 0 in 0 W/m2
05:22 42.3 °F 41.5 °F 30.2 in Calm     97% 0 in 0 W/m2
05:27 42.3 °F 41.2 °F 30.2 in Calm     96% 0 in 0 W/m2
05:32 42.1 °F 41 °F 30.2 in Calm     96% 0 in 0 W/m2
05:37 42.1 °F 41 °F 30.2 in Calm     96% 0 in 0 W/m2
05:42 42.1 °F 41.4 °F 30.2 in Calm     97% 0 in 0 W/m2
05:47 42.1 °F 41.4 °F 30.2 in Calm     97% 0 in 0 W/m2
05:52 42.1 °F 41.4 °F 30.2 in Calm     97% 0 in 0 W/m2
05:57 42.1 °F 41.4 °F 30.2 in Calm     97% 0 in 0 W/m2
06:02 42.3 °F 41.5 °F 30.2 in Calm   1 mph 97% 0 in 0 W/m2
06:07 42.3 °F 41.5 °F 30.2 in Calm   1 mph 97% 0 in 0 W/m2
06:12 42.3 °F 41.5 °F 30.2 in Calm     97% 0 in 0 W/m2
06:17 42.4 °F 41.7 °F 30.2 in Calm     97% 0 in 0 W/m2
06:22 42.4 °F 41.7 °F 30.2 in Calm     97% 0 in 0 W/m2
06:27 42.4 °F 41.7 °F 30.2 in Calm     97% 0 in 0 W/m2
06:32 42.4 °F 41.7 °F 30.2 in Calm     97% 0 in 0 W/m2
06:37 42.3 °F 41.5 °F 30.2 in Calm   2 mph 97% 0 in 0 W/m2
06:42 42.3 °F 41.5 °F 30.2 in Calm     97% 0 in 0 W/m2
06:47 42.1 °F 41.4 °F 30.2 in Calm   2 mph 97% 0 in 0 W/m2
06:52 42.1 °F 41.4 °F 30.2 in Calm     97% 0 in 0 W/m2
06:57 42.1 °F 41.4 °F 30.2 in Calm     97% 0 in 0 W/m2
07:02 42.1 °F 41.4 °F 30.2 in Calm     97% 0 in 0 W/m2
07:07 42.1 °F 41.4 °F 30.2 in Calm     97% 0 in 0 W/m2
07:12 42.1 °F 41.4 °F 30.2 in Calm     97% 0 in 0 W/m2
07:17 42.1 °F 41.4 °F 30.2 in Calm     97% 0 in 0 W/m2
07:22 42.1 °F 41.4 °F 30.2 in Calm   2 mph 97% 0 in 0 W/m2
07:27 42.1 °F 41.4 °F 30.2 in Calm     97% 0 in 0 W/m2
07:32 42.1 °F 41.4 °F 30.2 in Calm   1 mph 97% 0 in 0 W/m2
07:37 42.1 °F 41.4 °F 30.2 in Calm     97% 0 in 0 W/m2
07:42 42.3 °F 41.5 °F 30.2 in Calm     97% 0 in 0 W/m2
07:47 42.3 °F 41.5 °F 30.2 in Calm     97% 0 in 0 W/m2
07:52 42.3 °F 41.5 °F 30.2 in Calm     97% 0.01 in 0 W/m2
07:57 42.3 °F 41.5 °F 30.2 in Calm     97% 0.01 in 0 W/m2
08:02 42.3 °F 41.5 °F 30.2 in Calm     97% 0.01 in 0 W/m2
08:07 42.4 °F 41.7 °F 30.2 in Calm     97% 0.01 in 0 W/m2
08:12 42.3 °F 41.5 °F 30.2 in Calm     97% 0.01 in 0 W/m2
08:17 42.4 °F 41.7 °F 30.2 in Calm     97% 0.01 in 0 W/m2
08:22 42.3 °F 41.5 °F 30.2 in Calm     97% 0.01 in 0 W/m2
08:27 42.3 °F 41.5 °F 30.2 in Calm     97% 0.01 in 0 W/m2
08:32 42.3 °F 41.5 °F 30.2 in Calm     97% 0.01 in 0 W/m2
08:37 42.3 °F 41.5 °F 30.2 in Calm   6 mph 97% 0.01 in 0 W/m2
08:42 42.3 °F 41.5 °F 30.2 in Calm     97% 0.01 in 0 W/m2
08:47 42.3 °F 41.5 °F 30.2 in Calm   1 mph 97% 0.01 in 0 W/m2
08:52 42.4 °F 41.7 °F 30.2 in Calm     97% 0 in 0 W/m2
08:57 42.3 °F 41.5 °F 30.2 in Calm   2 mph 97% 0 in 0 W/m2
09:02 42.3 °F 41.5 °F 30.2 in Calm   1 mph 97% 0 in 5 W/m2
09:07 42.3 °F 41.5 °F 30.2 in Calm     97% 0 in 5 W/m2
09:12 42.4 °F 41.7 °F 30.2 in Calm     97% 0 in 7 W/m2
09:17 42.4 °F 41.7 °F 30.2 in Calm     97% 0 in 9 W/m2
09:22 42.4 °F 41.7 °F 30.2 in Calm     97% 0 in 12 W/m2
09:27 42.4 °F 41.7 °F 30.2 in Calm     97% 0 in 14 W/m2
09:32 42.4 °F 41.7 °F 30.2 in Calm   3 mph 97% 0 in 18 W/m2
09:38 42.4 °F 41.7 °F 30.2 in Calm     97% 0 in 16 W/m2
09:43 42.4 °F 41.7 °F 30.2 in NE 0.9 mph 3 mph 97% 0 in 12 W/m2
09:48 42.6 °F 41.9 °F 30.2 in Calm   1 mph 97% 0 in 12 W/m2
09:53 42.6 °F 41.5 °F 30.2 in Calm   3 mph 96% 0 in 11 W/m2
09:58 42.6 °F 41.5 °F 30.2 in Calm     96% 0 in 11 W/m2
10:03 42.6 °F 41.5 °F 30.2 in Calm   1 mph 96% 0 in 11 W/m2
10:08 42.6 °F 41.5 °F 30.2 in Calm     96% 0 in 12 W/m2
10:13 42.6 °F 41.5 °F 30.2 in Calm     96% 0 in 11 W/m2
10:18 42.6 °F 41.5 °F 30.2 in Calm     96% 0 in 9 W/m2
10:23 42.6 °F 41.5 °F 30.2 in Calm     96% 0 in 12 W/m2
10:28 42.6 °F 41.5 °F 30.2 in Calm     96% 0 in 14 W/m2
10:33 42.6 °F 41.5 °F 30.2 in Calm     96% 0 in 26 W/m2
10:38 42.8 °F 41.7 °F 30.2 in Calm     96% 0 in 33 W/m2
10:43 42.8 °F 41.7 °F 30.2 in Calm     96% 0 in 19 W/m2
10:48 43 °F 41.9 °F 30.2 in Calm     96% 0 in 26 W/m2
10:53 43 °F 41.9 °F 30.2 in Calm   1 mph 96% 0 in 44 W/m2
10:58 43 °F 41.9 °F 30.2 in Calm     96% 0 in 30 W/m2
11:03 43.2 °F 42.1 °F 30.2 in Calm   1 mph 96% 0 in 47 W/m2
11:08 43.2 °F 42.1 °F 30.2 in Calm     96% 0 in 39 W/m2
11:13 43.2 °F 42.1 °F 30.2 in Calm     96% 0 in 35 W/m2
11:18 43.3 °F 42.3 °F 30.2 in Calm   1 mph 96% 0 in 42 W/m2
11:23 43.3 °F 42.1 °F 30.2 in Calm     95% 0 in 58 W/m2
11:28 43.3 °F 42.1 °F 30.2 in Calm     95% 0 in 56 W/m2
11:33 43.5 °F 42.3 °F 30.2 in Calm     95% 0 in 70 W/m2
11:39 43.5 °F 42.3 °F 30.2 in Calm   1 mph 95% 0 in 47 W/m2
11:44 43.5 °F 42.3 °F 30.2 in Calm     95% 0 in 42 W/m2
11:49 43.7 °F 42.4 °F 30.1 in Calm     95% 0 in 42 W/m2
11:54 43.9 °F 42.6 °F 30.2 in Calm     95% 0 in 53 W/m2
11:59 43.9 °F 42.6 °F 30.2 in Calm     95% 0 in 47 W/m2
12:04 43.9 °F 42.6 °F 30.1 in Calm     95% 0 in 58 W/m2
12:09 43.9 °F 42.6 °F 30.1 in Calm   1 mph 95% 0 in 79 W/m2
12:14 44.1 °F 42.8 °F 30.1 in Calm     95% 0 in 95 W/m2
12:19 44.1 °F 42.8 °F 30.1 in Calm   1 mph 95% 0 in 137 W/m2
12:24 44.2 °F 43 °F 30.1 in Calm     95% 0 in 91 W/m2
12:29 44.2 °F 43 °F 30.1 in Calm   1 mph 95% 0 in 72 W/m2
12:34 44.4 °F 43.2 °F 30.1 in Calm     95% 0 in 83 W/m2
12:39 44.4 °F 43.2 °F 30.1 in Calm     95% 0 in 113 W/m2
12:44 44.4 °F 43.2 °F 30.1 in Calm     95% 0 in 114 W/m2
12:49 44.4 °F 43.2 °F 30.1 in Calm     95% 0 in 76 W/m2
12:54 44.6 °F 43 °F 30.1 in Calm     94% 0 in 93 W/m2
12:59 44.8 °F 43.2 °F 30.1 in Calm     94% 0 in 111 W/m2
13:04 44.8 °F 43.2 °F 30.1 in Calm   1 mph 94% 0 in 104 W/m2
13:09 45 °F 43.3 °F 30.1 in Calm   2 mph 94% 0 in 95 W/m2
13:14 45 °F 43.3 °F 30.1 in Calm     94% 0 in 69 W/m2
13:19 45 °F 43.3 °F 30.1 in Calm     94% 0 in 54 W/m2
13:24 45 °F 43 °F 30.1 in Calm     93% 0 in 65 W/m2
13:29 45 °F 43 °F 30.1 in Calm     93% 0 in 53 W/m2
13:34 45.1 °F 43.2 °F 30.1 in Calm     93% 0 in 35 W/m2
13:39 45.1 °F 43.2 °F 30.1 in Calm     93% 0 in 83 W/m2
13:44 45.1 °F 43.2 °F 30.1 in Calm     93% 0 in 54 W/m2
13:49 45.3 °F 43.3 °F 30.1 in Calm     93% 0 in 86 W/m2
13:54 45.3 °F 43.3 °F 30.1 in Calm     93% 0 in 104 W/m2
13:59 45.3 °F 43.3 °F 30.1 in Calm     93% 0 in 63 W/m2
14:04 45.5 °F 43.5 °F 30.1 in Calm     93% 0 in 63 W/m2
14:09 45.7 °F 43.7 °F 30.1 in Calm     93% 0 in 53 W/m2
14:14 45.5 °F 43.5 °F 30.1 in Calm   1 mph 93% 0 in 51 W/m2
14:19 45.5 °F 43.5 °F 30.1 in Calm     93% 0 in 54 W/m2
14:24 45.5 °F 43.5 °F 30.1 in Calm   2 mph 93% 0 in 42 W/m2
14:29 45.5 °F 43.3 °F 30.1 in Calm     92% 0 in 65 W/m2
14:34 45.5 °F 43.3 °F 30.1 in Calm   2 mph 92% 0 in 65 W/m2
14:39 45.5 °F 43.3 °F 30.1 in Calm     92% 0 in 60 W/m2
14:44 45.5 °F 43.3 °F 30.1 in Calm   1 mph 92% 0 in 62 W/m2
14:49 45.7 °F 43.5 °F 30.1 in Calm     92% 0 in 65 W/m2
14:54 45.7 °F 43.5 °F 30 in Calm     92% 0 in 84 W/m2
14:59 45.7 °F 43.5 °F 30 in Calm     92% 0 in 83 W/m2
15:04 45.9 °F 43.7 °F 30.1 in Calm     92% 0 in 88 W/m2
15:09 45.9 °F 43.7 °F 30 in Calm     92% 0 in 84 W/m2
15:14 46 °F 43.9 °F 30 in Calm   3 mph 92% 0 in 65 W/m2
15:19 46 °F 43.9 °F 30 in Calm     92% 0 in 39 W/m2
15:24 46 °F 43.5 °F 30 in Calm     91% 0 in 32 W/m2
15:29 45.9 °F 43.7 °F 30 in Calm   1 mph 92% 0 in 30 W/m2
15:34 45.7 °F 43.5 °F 30 in Calm     92% 0 in 28 W/m2
15:39 45.7 °F 43.5 °F 30 in Calm   7 mph 92% 0 in 23 W/m2
15:44 45.5 °F 43 °F 30 in Calm   4 mph 91% 0 in 30 W/m2
15:49 45.5 °F 43.3 °F 30 in Calm   6 mph 92% 0 in 30 W/m2
15:54 45.3 °F 43.2 °F 30 in Calm     92% 0 in 28 W/m2
15:59 45.3 °F 43.2 °F 30 in Calm   8 mph 92% 0 in 30 W/m2
16:04 45.3 °F 43.2 °F 30 in Calm     92% 0 in 21 W/m2
16:09 45.3 °F 43.2 °F 30 in East 4.9 mph 8 mph 92% 0 in 19 W/m2
16:14 45.3 °F 43.2 °F 30 in Calm   1 mph 92% 0 in 21 W/m2
16:19 45.3 °F 43.2 °F 30 in East 2.9 mph 5 mph 92% 0 in 16 W/m2
16:24 45.1 °F 43 °F 30 in Calm     92% 0 in 18 W/m2
16:29 45.1 °F 43 °F 30 in Calm   3 mph 92% 0 in 11 W/m2
16:34 45.1 °F 43 °F 30 in Calm   3 mph 92% 0 in 9 W/m2
16:39 45.1 °F 43 °F 30 in Calm   4 mph 92% 0 in 0 W/m2
16:44 45.1 °F 43 °F 30 in Calm     92% 0 in 0 W/m2
16:49 45.1 °F 43 °F 30 in Calm     92% 0 in 0 W/m2
16:54 45.1 °F 43.2 °F 30 in Calm     93% 0 in 0 W/m2
16:59 45 °F 43 °F 30 in Calm     93% 0 in 0 W/m2
17:04 45 °F 43 °F 30 in Calm     93% 0 in 0 W/m2
17:09 45 °F 43 °F 30 in Calm     93% 0 in 0 W/m2
17:14 45 °F 43 °F 30 in East 3 mph 3 mph 93% 0 in 0 W/m2
17:19 45 °F 43 °F 30 in Calm   1 mph 93% 0 in 0 W/m2
17:24 44.8 °F 42.8 °F 30 in Calm     93% 0 in 0 W/m2
17:29 44.8 °F 42.8 °F 30 in Calm   8 mph 93% 0 in 0 W/m2
17:34 44.8 °F 42.8 °F 30 in Calm     93% 0 in 0 W/m2
17:39 44.8 °F 42.8 °F 30 in Calm   8 mph 93% 0 in 0 W/m2
17:44 44.8 °F 42.8 °F 30 in East 0.9 mph 2 mph 93% 0 in 0 W/m2
17:49 44.6 °F 42.6 °F 30 in Calm     93% 0 in 0 W/m2
17:54 44.6 °F 42.6 °F 30 in Calm   3 mph 93% 0 in 0 W/m2
17:59 44.6 °F 42.6 °F 30 in Calm     93% 0 in 0 W/m2
18:04 44.6 °F 42.6 °F 30 in ESE 2 mph 6 mph 93% 0 in 0 W/m2
18:09 44.4 °F 42.4 °F 30 in Calm   2 mph 93% 0 in 0 W/m2
18:14 44.4 °F 42.4 °F 30 in East 6.9 mph 7 mph 93% 0 in 0 W/m2
18:19 44.2 °F 42.3 °F 30 in ESE 8.9 mph 9 mph 93% 0 in 0 W/m2
18:24 44.2 °F 42.3 °F 30 in Calm     93% 0 in 0 W/m2
18:29 44.1 °F 42.1 °F 30 in Calm   9 mph 93% 0 in 0 W/m2
18:34 44.1 °F 42.1 °F 30 in Calm   3 mph 93% 0 in 0 W/m2
18:39 43.9 °F 42.3 °F 30 in Calm   8 mph 94% 0 in 0 W/m2
18:44 43.7 °F 41.7 °F 30 in Calm     93% 0 in 0 W/m2
18:49 43.5 °F 41.7 °F 30 in Calm     93% 0 in 0 W/m2
18:54 43.5 °F 41.9 °F 30 in Calm     94% 0 in 0 W/m2
18:59 43.3 °F 41.7 °F 30 in Calm     94% 0 in 0 W/m2
19:05 43.3 °F 41.7 °F 30 in Calm     94% 0 in 0 W/m2
19:10 43.2 °F 41.5 °F 30 in Calm     94% 0 in 0 W/m2
19:15 43.2 °F 41.5 °F 30 in NNE 1 mph 1 mph 94% 0 in 0 W/m2
19:20 43.2 °F 41.5 °F 30 in Calm     94% 0 in 0 W/m2
19:25 43.3 °F 41.7 °F 30 in Calm     94% 0 in 0 W/m2
19:30 43.3 °F 41.7 °F 30 in Calm     94% 0 in 0 W/m2
19:35 43.3 °F 41.7 °F 30 in Calm     94% 0 in 0 W/m2
19:40 43.3 °F 41.7 °F 30 in Calm     94% 0 in 0 W/m2
19:45 43.3 °F 41.7 °F 30 in Calm     94% 0 in 0 W/m2
19:50 43.3 °F 41.7 °F 30 in Calm     94% 0 in 0 W/m2
19:55 43.2 °F 41.5 °F 30 in Calm     94% 0 in 0 W/m2
20:00 43.2 °F 41.5 °F 30 in Calm     94% 0 in 0 W/m2
20:05 43.2 °F 41.5 °F 30 in Calm     94% 0 in 0 W/m2
20:10 43.2 °F 41.5 °F 30 in Calm     94% 0 in 0 W/m2
20:15 43.3 °F 41.7 °F 30 in Calm     94% 0 in 0 W/m2
20:20 43.3 °F 41.7 °F 30 in Calm   1 mph 94% 0 in 0 W/m2
20:25 43.5 °F 41.9 °F 30 in Calm     94% 0 in 0 W/m2
20:30 43.5 °F 41.9 °F 30 in Calm     94% 0 in 0 W/m2
20:36 43.5 °F 41.9 °F 30 in Calm     94% 0 in 0 W/m2
20:41 43.3 °F 41.7 °F 30 in Calm     94% 0 in 0 W/m2
20:46 43.3 °F 41.7 °F 30 in Calm     94% 0 in 0 W/m2
20:51 43.2 °F 41.5 °F 30 in Calm     94% 0 in 0 W/m2
20:56 43 °F 41.4 °F 30 in Calm     94% 0 in 0 W/m2
21:01 42.8 °F 41.2 °F 30 in Calm     94% 0 in 0 W/m2
21:06 42.6 °F 41 °F 30 in Calm     94% 0 in 0 W/m2
21:11 42.4 °F 40.8 °F 30 in Calm     94% 0 in 0 W/m2
21:16 42.4 °F 41.2 °F 30 in Calm     95% 0 in 0 W/m2
21:21 42.4 °F 41.2 °F 30 in Calm     95% 0 in 0 W/m2
21:26 42.4 °F 41.2 °F 30 in Calm     95% 0 in 0 W/m2
21:31 42.4 °F 41.2 °F 30 in Calm     95% 0 in 0 W/m2
21:36 42.6 °F 41.4 °F 30 in Calm     95% 0 in 0 W/m2
21:41 43 °F 41.7 °F 30 in Calm     95% 0 in 0 W/m2
21:46 43.2 °F 41.9 °F 30 in Calm   3 mph 95% 0 in 0 W/m2
21:51 43.5 °F 42.3 °F 30 in Calm     95% 0 in 0 W/m2
21:57 43.9 °F 42.6 °F 30 in Calm     95% 0 in 0 W/m2
22:02 44.1 °F 42.8 °F 30 in NW 4 mph 4 mph 95% 0 in 0 W/m2
22:07 44.2 °F 43 °F 30 in Calm     95% 0 in 0 W/m2
22:12 44.4 °F 42.8 °F 29.9 in Calm   6 mph 94% 0 in 0 W/m2
22:17 44.6 °F 43 °F 30 in Calm   2 mph 94% 0 in 0 W/m2
22:22 44.6 °F 43 °F 29.9 in Calm   6 mph 94% 0 in 0 W/m2
22:27 44.6 °F 43 °F 29.9 in WNW 2.9 mph 4 mph 94% 0 in 0 W/m2
22:32 44.8 °F 43.2 °F 29.9 in Calm     94% 0 in 0 W/m2
22:37 44.8 °F 42.8 °F 29.9 in West 4 mph 4 mph 93% 0 in 0 W/m2
22:42 45 °F 43 °F 29.9 in Calm     93% 0 in 0 W/m2
22:47 45 °F 43 °F 29.9 in Calm   2 mph 93% 0 in 0 W/m2
22:52 45 °F 43 °F 29.9 in Calm     93% 0 in 0 W/m2
22:57 45 °F 42.8 °F 29.9 in Calm   2 mph 92% 0 in 0 W/m2
23:02 45.1 °F 43 °F 29.9 in Calm     92% 0 in 0 W/m2
23:07 45.1 °F 43 °F 29.9 in Calm   1 mph 92% 0 in 0 W/m2
23:12 45.1 °F 43 °F 29.9 in Calm     92% 0 in 0 W/m2
23:17 45.1 °F 42.6 °F 29.9 in Calm     91% 0 in 0 W/m2
23:22 45.1 °F 42.6 °F 29.9 in Calm     91% 0 in 0 W/m2
23:27 45.1 °F 42.4 °F 29.9 in Calm   1 mph 90% 0 in 0 W/m2
23:32 45 °F 42.4 °F 29.9 in Calm     91% 0 in 0 W/m2
23:37 44.4 °F 41.9 °F 29.9 in Calm     91% 0 in 0 W/m2
23:42 44.2 °F 41.7 °F 29.9 in Calm     91% 0 in 0 W/m2
23:47 44.1 °F 41.5 °F 29.9 in Calm   1 mph 91% 0 in 0 W/m2
23:52 43.9 °F 41.4 °F 29.9 in Calm     91% 0 in 0 W/m2
23:57 43.5 °F 41 °F 29.9 in Calm   1 mph 91% 0 in 0 W/m2
Juneau County Weather
Compliments of Weather Underground - 4 mb